Cape Newenham Lrrs Airport
PAEH : now visible

Airfield :











YOU CAN JOIN US ON...

 
LOGIN :

Register | Disclaimer

   EN    FR    IT 

 









Legend :    VFR   Marginal VFR   IFR   Intensive IFR   Very Intensive IFR
Visi :
Ceiling :
>= 8 km
>= 3000ft
5 to 8 km
1000 to 3000 ft
1500m to 5 km
500 to 1000 ft
800 to 1500m
200 to 500 ft
< 800m
< 200 ft
Symbols :   Thunderstorms  Fog  Heavy snow  Heavy precipitations  Wind > 20 kt






- Airport Elevation : 541 ft
- IATA code : EHM


PAEH - Cape Newenham Lrrs

CURRENT METAR :
  • 270455Z AUTO 01026G35KT 10SM BKN016 M20/M23 A2981 RMK AO2 PK WND 01041/0407 SLP121 T12001233

EXPIRED METARs :
  • 270355Z AUTO 36034G38KT 10SM FEW014 FEW019 M20/M24 A2979 RMK AO2 PK WND 36040/0338 SLP115 T11991238
  • 270255Z AUTO 01030G34KT 10SM FEW015 M20/M23 A2982 RMK AO2 PK WND 36040/0212 SLP123 T12021234 58005

Expired Forecast.



MET'MAP, your aeronautical weather chart ! - Copyright ORBIFLY December 2007 - Disclaimer

ORBIFLY MET'MAP TEAM :

Programming & Development : Alexandra Zaïnal
Concept & original design : Baudouin d'Aumeries
Assistance for programming : Marc-Olivier Méhu
Technical & hardware support : Manuel Goepfert

Contact : metmap@orbifly.com




SOURCES & CREDITS :

   NOAA       Earth
Advisory